createdAt,value
2017-12-10T00:00:41.668Z,6.00
2017-12-10T00:02:45.808Z,5.07
2017-12-10T00:04:50.654Z,4.30
2017-12-10T00:06:54.254Z,5.35
2017-12-10T00:08:57.758Z,5.50
2017-12-10T00:11:01.341Z,4.80
2017-12-10T00:13:04.884Z,5.00
2017-12-10T00:15:08.413Z,5.78
2017-12-10T00:17:11.945Z,5.30
2017-12-10T00:19:15.497Z,5.50
2017-12-10T00:21:19.040Z,4.40
2017-12-10T00:23:23.362Z,5.30
2017-12-10T00:25:26.914Z,5.45
2017-12-10T00:27:30.416Z,6.47
2017-12-10T00:29:34.742Z,6.10
2017-12-10T00:31:39.003Z,5.50
2017-12-10T00:33:42.536Z,5.60
2017-12-10T00:35:46.044Z,5.40
2017-12-10T00:37:49.541Z,5.73
2017-12-10T00:39:53.074Z,6.60
2017-12-10T00:41:56.576Z,5.53
2017-12-10T00:44:00.135Z,5.68
2017-12-10T00:46:04.423Z,5.97
2017-12-10T00:48:08.703Z,6.20
2017-12-10T00:50:12.246Z,6.93
2017-12-10T00:52:16.535Z,6.62
2017-12-10T00:54:20.099Z,5.70
2017-12-10T00:56:23.638Z,5.90
2017-12-10T00:58:27.151Z,5.75
2017-12-10T01:00:30.666Z,4.70
2017-12-10T01:02:34.192Z,5.90
2017-12-10T01:04:38.514Z,6.20
2017-12-10T01:06:42.477Z,5.30
2017-12-10T01:08:45.989Z,5.50
2017-12-10T01:10:49.567Z,5.37
2017-12-10T01:12:53.839Z,5.43
2017-12-10T01:14:57.428Z,5.50
2017-12-10T01:17:00.908Z,6.30
2017-12-10T01:19:04.432Z,6.30
2017-12-10T01:21:08.799Z,4.62
2017-12-10T01:23:12.303Z,5.85
2017-12-10T01:25:15.885Z,5.55
2017-12-10T01:27:19.391Z,6.25
2017-12-10T01:29:23.116Z,5.70
2017-12-10T01:31:26.699Z,5.90
2017-12-10T01:33:30.206Z,6.73
2017-12-10T01:35:33.813Z,5.75
2017-12-10T01:37:37.403Z,5.25
2017-12-10T01:39:40.930Z,5.50
2017-12-10T01:41:44.498Z,5.30
2017-12-10T01:43:48.096Z,5.57
2017-12-10T01:45:51.991Z,5.73
2017-12-10T01:47:56.321Z,6.43
2017-12-10T01:50:00.652Z,5.68
2017-12-10T01:52:04.999Z,5.43
2017-12-10T01:54:09.461Z,5.20
2017-12-10T01:56:13.044Z,5.68
2017-12-10T01:58:17.352Z,5.43
2017-12-10T02:00:20.893Z,5.18
2017-12-10T02:02:24.720Z,5.33
2017-12-10T02:04:28.481Z,5.50
2017-12-10T02:06:31.985Z,5.43
2017-12-10T02:08:36.314Z,6.07
2017-12-10T02:10:40.597Z,4.73
2017-12-10T02:12:44.149Z,5.70
2017-12-10T02:14:47.782Z,5.40
2017-12-10T02:16:52.172Z,5.90
2017-12-10T02:18:55.687Z,6.32
2017-12-10T02:20:59.206Z,4.47
2017-12-10T02:23:02.765Z,6.37
2017-12-10T02:25:07.180Z,5.40
2017-12-10T02:27:10.783Z,6.00
2017-12-10T02:29:14.596Z,5.35
2017-12-10T02:31:19.032Z,5.03
2017-12-10T02:33:22.652Z,5.65
2017-12-10T02:35:26.712Z,5.43
2017-12-10T02:37:30.240Z,4.70
2017-12-10T02:39:34.579Z,5.32
2017-12-10T02:41:38.823Z,5.68
2017-12-10T02:43:42.444Z,5.62
2017-12-10T02:45:46.751Z,6.28
2017-12-10T02:47:50.285Z,5.67
2017-12-10T02:49:54.612Z,5.33
2017-12-10T02:51:58.159Z,5.10
2017-12-10T02:54:01.697Z,4.45
2017-12-10T02:56:06.004Z,5.62
2017-12-10T02:58:09.519Z,5.97
2017-12-10T03:00:13.364Z,4.82
2017-12-10T03:02:16.864Z,4.77
2017-12-10T03:04:20.458Z,4.80
2017-12-10T03:06:23.958Z,5.75
2017-12-10T03:08:27.472Z,4.62
2017-12-10T03:10:33.340Z,4.80
2017-12-10T03:12:37.577Z,5.97
2017-12-10T03:14:41.116Z,5.67
2017-12-10T03:16:44.771Z,6.17
2017-12-10T03:18:49.508Z,5.37
2017-12-10T03:20:53.049Z,5.40
2017-12-10T03:22:56.573Z,5.40
2017-12-10T03:25:00.128Z,6.07
2017-12-10T03:27:04.174Z,5.57
2017-12-10T03:29:08.462Z,5.47
2017-12-10T03:31:12.168Z,5.12
2017-12-10T03:33:15.852Z,5.30
2017-12-10T03:35:19.381Z,5.90
2017-12-10T03:37:23.666Z,5.50
2017-12-10T03:39:27.681Z,5.47
2017-12-10T03:41:33.155Z,5.10
2017-12-10T03:43:36.657Z,5.50
2017-12-10T03:45:41.008Z,5.10
2017-12-10T03:47:44.608Z,6.53
2017-12-10T03:49:48.743Z,5.37
2017-12-10T03:51:53.272Z,6.50
2017-12-10T03:53:56.982Z,5.00
2017-12-10T03:56:00.561Z,6.30
2017-12-10T03:58:04.068Z,5.27
2017-12-10T04:00:07.705Z,5.30
2017-12-10T04:02:11.335Z,5.75
2017-12-10T04:04:14.861Z,4.90
2017-12-10T04:06:22.667Z,5.85
2017-12-10T04:08:26.954Z,5.80
2017-12-10T04:10:30.460Z,5.20
2017-12-10T04:12:34.894Z,4.87
2017-12-10T04:14:38.448Z,6.20
2017-12-10T04:16:41.939Z,6.00
2017-12-10T04:18:46.382Z,6.03
2017-12-10T04:20:50.949Z,5.97
2017-12-10T04:22:54.530Z,6.53
2017-12-10T04:24:58.034Z,6.05
2017-12-10T04:27:01.502Z,5.50
2017-12-10T04:29:05.830Z,5.28
2017-12-10T04:31:11.076Z,5.35
2017-12-10T04:33:14.661Z,5.82
2017-12-10T04:35:18.192Z,5.87
2017-12-10T04:37:21.685Z,5.50
2017-12-10T04:39:25.253Z,4.83
2017-12-10T04:41:28.779Z,5.07
2017-12-10T04:43:33.104Z,5.00
2017-12-10T04:45:36.562Z,6.03
2017-12-10T04:47:40.071Z,5.45
2017-12-10T04:49:43.637Z,4.70
2017-12-10T04:51:47.955Z,4.80
2017-12-10T04:53:51.496Z,5.53
2017-12-10T04:55:55.021Z,5.20
2017-12-10T04:57:58.549Z,4.27
2017-12-10T05:00:02.085Z,4.80
2017-12-10T05:02:05.616Z,5.40
2017-12-10T05:04:09.955Z,4.70
2017-12-10T05:06:13.476Z,4.87
2017-12-10T05:08:16.991Z,4.68
2017-12-10T05:10:20.525Z,4.57
2017-12-10T05:12:25.023Z,4.60
2017-12-10T05:14:28.595Z,4.60
2017-12-10T05:16:32.093Z,4.50
2017-12-10T05:18:35.584Z,4.37
2017-12-10T05:20:39.135Z,4.90
2017-12-10T05:22:43.920Z,4.43
2017-12-10T05:24:48.244Z,4.30
2017-12-10T05:26:51.704Z,4.80
2017-12-10T05:28:56.197Z,5.00
2017-12-10T05:31:00.602Z,4.00
2017-12-10T05:33:04.340Z,4.53
2017-12-10T05:35:08.688Z,4.53
2017-12-10T05:37:12.975Z,4.80
2017-12-10T05:39:17.428Z,4.47
2017-12-10T05:41:21.705Z,3.83
2017-12-10T05:43:25.920Z,5.00
2017-12-10T05:45:29.438Z,4.00
2017-12-10T05:47:32.980Z,4.20
2017-12-10T05:49:36.507Z,4.00
2017-12-10T05:51:40.053Z,4.95
2017-12-10T05:53:44.301Z,4.43
2017-12-10T05:55:47.814Z,5.43
2017-12-10T05:57:51.363Z,5.18
2017-12-10T05:59:54.859Z,4.87
2017-12-10T06:01:58.367Z,5.28
2017-12-10T06:04:01.875Z,5.60
2017-12-10T06:06:05.446Z,4.12
2017-12-10T06:08:09.002Z,4.68
2017-12-10T06:10:12.493Z,5.30
2017-12-10T06:12:16.764Z,4.80
2017-12-10T06:14:20.304Z,6.00
2017-12-10T06:16:23.798Z,5.43
2017-12-10T06:18:28.114Z,4.87
2017-12-10T06:20:32.393Z,4.97
2017-12-10T06:22:36.752Z,5.70
2017-12-10T06:24:40.332Z,4.70
2017-12-10T06:26:43.911Z,4.85
2017-12-10T06:28:47.459Z,4.95
2017-12-10T06:30:52.643Z,4.63
2017-12-10T06:32:56.235Z,4.10
2017-12-10T06:34:59.872Z,4.80
2017-12-10T06:37:03.457Z,4.70
2017-12-10T06:39:07.025Z,4.40
2017-12-10T06:41:10.634Z,5.50
2017-12-10T06:43:14.174Z,4.87
2017-12-10T06:45:17.717Z,5.63
2017-12-10T06:47:21.205Z,5.40
2017-12-10T06:49:24.761Z,4.40
2017-12-10T06:51:29.034Z,4.90
2017-12-10T06:53:32.505Z,4.50
2017-12-10T06:55:36.044Z,4.72
2017-12-10T06:57:39.494Z,4.50
2017-12-10T06:59:43.044Z,3.73
2017-12-10T07:01:46.550Z,4.37
2017-12-10T07:03:50.134Z,3.90
2017-12-10T07:05:54.470Z,4.30
2017-12-10T07:07:57.967Z,4.20
2017-12-10T07:10:01.582Z,3.77
2017-12-10T07:12:05.070Z,4.30
2017-12-10T07:14:08.560Z,4.40
2017-12-10T07:16:12.057Z,3.90
2017-12-10T07:18:15.528Z,3.87
2017-12-10T07:20:19.771Z,4.10
2017-12-10T07:22:23.304Z,4.07
2017-12-10T07:24:26.824Z,4.30
2017-12-10T07:26:31.162Z,4.30
2017-12-10T07:28:34.664Z,4.47
2017-12-10T07:30:38.146Z,5.20
2017-12-10T07:32:42.734Z,4.17
2017-12-10T07:34:46.227Z,3.17
2017-12-10T07:36:49.752Z,3.70
2017-12-10T07:38:53.256Z,4.50
2017-12-10T07:40:56.745Z,4.10
2017-12-10T07:43:00.403Z,3.80
2017-12-10T07:45:03.918Z,3.60
2017-12-10T07:47:07.437Z,3.93
2017-12-10T07:49:10.935Z,4.33
2017-12-10T07:51:14.467Z,4.10
2017-12-10T07:53:18.031Z,3.43
2017-12-10T07:55:21.601Z,3.62
2017-12-10T07:57:25.092Z,4.27
2017-12-10T07:59:29.406Z,3.75
2017-12-10T08:01:32.894Z,3.70
2017-12-10T08:03:37.239Z,3.50
2017-12-10T08:05:40.827Z,2.90
2017-12-10T08:07:44.358Z,3.57
2017-12-10T08:09:47.918Z,3.35
2017-12-10T08:11:51.439Z,3.70
2017-12-10T08:13:55.101Z,3.27
2017-12-10T08:15:58.726Z,3.42
2017-12-10T08:18:02.341Z,2.95
2017-12-10T08:20:05.944Z,3.42
2017-12-10T08:22:09.422Z,3.28
2017-12-10T08:24:13.829Z,3.00
2017-12-10T08:26:17.444Z,3.22
2017-12-10T08:28:20.974Z,3.43
2017-12-10T08:30:24.551Z,3.63
2017-12-10T08:32:28.066Z,4.00
2017-12-10T08:34:31.601Z,3.12
2017-12-10T08:36:35.135Z,2.87
2017-12-10T08:38:38.635Z,3.22
2017-12-10T08:40:42.254Z,3.03
2017-12-10T08:42:46.617Z,3.10
2017-12-10T08:44:50.233Z,3.37
2017-12-10T08:46:53.795Z,3.22
2017-12-10T08:48:58.051Z,3.00
2017-12-10T08:51:01.578Z,3.30
2017-12-10T08:53:05.954Z,2.90
2017-12-10T08:55:09.495Z,4.20
2017-12-10T08:57:13.793Z,3.55
2017-12-10T08:59:17.385Z,3.03
2017-12-10T09:01:20.970Z,2.55
2017-12-10T09:03:24.570Z,2.90
2017-12-10T09:05:28.135Z,3.15
2017-12-10T09:07:31.670Z,2.95
2017-12-10T09:09:35.327Z,2.80
2017-12-10T09:11:39.006Z,3.35
2017-12-10T09:13:44.612Z,2.92
2017-12-10T09:15:48.412Z,2.55
2017-12-10T09:17:51.915Z,3.30
2017-12-10T09:19:55.737Z,2.75
2017-12-10T09:21:59.326Z,2.28
2017-12-10T09:24:03.156Z,2.97
2017-12-10T09:26:08.512Z,3.62
2017-12-10T09:28:12.081Z,3.67
2017-12-10T09:30:15.609Z,3.28
2017-12-10T09:32:19.138Z,2.97
2017-12-10T09:34:23.531Z,3.60
2017-12-10T09:36:27.000Z,3.15
2017-12-10T09:38:30.550Z,2.55
2017-12-10T09:40:34.049Z,2.05
2017-12-10T09:42:38.318Z,2.33
2017-12-10T09:44:41.857Z,1.90
2017-12-10T09:46:46.138Z,2.50
2017-12-10T09:48:49.668Z,2.70
2017-12-10T09:50:53.998Z,3.05
2017-12-10T09:52:57.499Z,2.67
2017-12-10T09:55:01.182Z,2.67
2017-12-10T09:57:05.510Z,2.20
2017-12-10T09:59:09.040Z,2.70
2017-12-10T10:01:12.581Z,2.70
2017-12-10T10:03:16.123Z,2.90
2017-12-10T10:05:19.680Z,1.90
2017-12-10T10:07:23.197Z,2.25
2017-12-10T10:09:26.694Z,2.58
2017-12-10T10:11:30.286Z,2.90
2017-12-10T10:13:33.862Z,2.20
2017-12-10T10:15:38.147Z,2.60
2017-12-10T10:17:41.671Z,2.42
2017-12-10T10:19:45.177Z,3.37
2017-12-10T10:21:48.825Z,2.83
2017-12-10T10:23:52.333Z,3.00
2017-12-10T10:25:55.931Z,3.25
2017-12-10T10:27:59.427Z,2.40
2017-12-10T10:30:02.905Z,2.70
2017-12-10T10:32:06.415Z,2.60
2017-12-10T10:34:10.768Z,2.22
2017-12-10T10:36:14.378Z,2.53
2017-12-10T10:38:17.870Z,2.60
2017-12-10T10:40:21.380Z,2.85
2017-12-10T10:42:24.915Z,2.30
2017-12-10T10:44:29.225Z,2.90
2017-12-10T10:46:32.802Z,2.37
2017-12-10T10:48:36.362Z,3.37
2017-12-10T10:50:39.858Z,3.00
2017-12-10T10:52:43.406Z,2.95
2017-12-10T10:54:46.908Z,2.87
2017-12-10T10:56:50.454Z,2.50
2017-12-10T10:58:53.947Z,2.40
2017-12-10T11:00:59.341Z,2.60
2017-12-10T11:03:02.890Z,2.72
2017-12-10T11:05:06.415Z,2.65
2017-12-10T11:07:09.952Z,3.60
2017-12-10T11:09:14.291Z,7.32
2017-12-10T11:11:17.831Z,5.30
2017-12-10T11:13:21.379Z,3.20
2017-12-10T11:15:24.874Z,4.25
2017-12-10T11:17:29.137Z,3.65
2017-12-10T11:19:32.870Z,4.10
2017-12-10T11:21:37.164Z,3.37
2017-12-10T11:23:40.709Z,2.75
2017-12-10T11:25:44.209Z,3.30
2017-12-10T11:27:47.766Z,4.28
2017-12-10T11:29:52.028Z,4.03
2017-12-10T11:31:55.548Z,3.45
2017-12-10T11:33:59.104Z,2.40
2017-12-10T11:36:02.633Z,3.40
2017-12-10T11:38:06.179Z,2.80
2017-12-10T11:40:09.663Z,2.40
2017-12-10T11:42:13.731Z,3.07
2017-12-10T11:44:18.064Z,2.50
2017-12-10T11:46:21.572Z,3.50
2017-12-10T11:48:25.075Z,2.47
2017-12-10T11:50:28.628Z,3.10
2017-12-10T11:52:32.109Z,2.43
2017-12-10T11:54:35.709Z,3.30
2017-12-10T11:56:39.187Z,2.47
2017-12-10T11:58:42.715Z,2.58
2017-12-10T12:00:47.779Z,2.40
2017-12-10T12:02:52.038Z,2.77
2017-12-10T12:04:55.614Z,2.30
2017-12-10T12:06:59.163Z,2.40
2017-12-10T12:09:03.555Z,3.30
2017-12-10T12:11:07.115Z,2.95
2017-12-10T12:13:10.615Z,3.03
2017-12-10T12:15:14.106Z,3.25
2017-12-10T12:17:17.643Z,2.53
2017-12-10T12:19:21.135Z,2.73
2017-12-10T12:21:29.711Z,2.38
2017-12-10T12:26:01.460Z,2.58
2017-12-10T12:28:05.045Z,2.80
2017-12-10T12:30:08.565Z,1.97
2017-12-10T12:32:12.847Z,2.43
2017-12-10T12:34:17.151Z,2.20
2017-12-10T12:36:20.652Z,2.70
2017-12-10T12:38:24.166Z,2.53
2017-12-10T12:40:27.623Z,2.30
2017-12-10T12:42:31.192Z,2.63
2017-12-10T12:44:34.692Z,2.77
2017-12-10T12:46:38.186Z,2.63
2017-12-10T12:48:41.711Z,4.03
2017-12-10T12:50:45.208Z,2.80
2017-12-10T12:52:48.699Z,3.10
2017-12-10T12:54:52.246Z,3.13
2017-12-10T12:56:56.500Z,2.70
2017-12-10T12:58:59.972Z,2.27
2017-12-10T13:01:03.470Z,1.97
2017-12-10T13:03:06.918Z,2.60
2017-12-10T13:05:10.440Z,3.03
2017-12-10T13:07:13.937Z,4.63
2017-12-10T13:09:17.407Z,4.90
2017-12-10T13:11:21.675Z,3.30
2017-12-10T13:13:25.201Z,2.97
2017-12-10T13:15:28.734Z,3.40
2017-12-10T13:17:32.274Z,3.60
2017-12-10T13:19:35.758Z,4.87
2017-12-10T13:21:39.409Z,4.27
2017-12-10T13:23:43.037Z,5.00
2017-12-10T13:25:46.512Z,8.10
2017-12-10T13:27:50.781Z,5.40
2017-12-10T13:29:54.286Z,6.40
2017-12-10T13:31:58.579Z,8.63
2017-12-10T13:34:03.925Z,8.43
2017-12-10T13:36:08.280Z,6.10
2017-12-10T13:38:12.725Z,4.30
2017-12-10T13:40:16.414Z,3.00
2017-12-10T13:42:21.218Z,3.40
2017-12-10T13:44:25.449Z,3.63
2017-12-10T13:46:29.902Z,3.87
2017-12-10T13:48:33.431Z,3.13
2017-12-10T13:50:38.409Z,13.60
2017-12-10T13:52:42.831Z,11.50
2017-12-10T13:54:46.471Z,6.30
2017-12-10T13:56:50.794Z,7.30
2017-12-10T13:58:55.178Z,6.53
2017-12-10T14:00:59.619Z,4.27
2017-12-10T14:03:03.404Z,3.77
2017-12-10T14:05:07.118Z,3.77
2017-12-10T14:07:10.825Z,2.80
2017-12-10T14:09:17.308Z,4.50
2017-12-10T14:11:21.136Z,4.00
2017-12-10T14:13:24.919Z,3.60
2017-12-10T14:15:28.710Z,4.07
2017-12-10T14:17:32.340Z,5.53
2017-12-10T14:19:36.092Z,7.03
2017-12-10T14:21:39.697Z,5.93
2017-12-10T14:23:43.267Z,5.50
2017-12-10T14:25:48.195Z,4.60
2017-12-10T14:27:51.934Z,4.10
2017-12-10T14:29:55.535Z,5.30
2017-12-10T14:32:00.248Z,7.00
2017-12-10T14:34:03.827Z,4.70
2017-12-10T14:36:08.195Z,3.00
2017-12-10T14:38:11.730Z,2.70
2017-12-10T14:40:16.096Z,3.20
2017-12-10T14:42:19.710Z,3.30
2017-12-10T14:44:24.411Z,2.80
2017-12-10T14:46:28.017Z,2.77
2017-12-10T14:48:31.572Z,3.10
2017-12-10T14:50:36.033Z,2.83
2017-12-10T14:52:39.945Z,2.47
2017-12-10T14:54:43.457Z,2.83
2017-12-10T14:56:46.976Z,5.80
2017-12-10T14:58:50.830Z,3.33
2017-12-10T15:00:54.412Z,2.73
2017-12-10T15:02:58.101Z,3.23
2017-12-10T15:05:01.641Z,4.63
2017-12-10T15:07:09.427Z,4.17
2017-12-10T15:09:13.184Z,5.23
2017-12-10T15:11:18.054Z,2.87
2017-12-10T15:13:23.563Z,2.87
2017-12-10T15:15:27.218Z,3.23
2017-12-10T15:17:32.536Z,2.73
2017-12-10T15:19:37.490Z,3.10
2017-12-10T15:21:41.098Z,2.90
2017-12-10T15:23:44.742Z,3.40
2017-12-10T15:25:48.377Z,3.60
2017-12-10T15:27:52.079Z,3.53
2017-12-10T15:29:55.699Z,2.90
2017-12-10T15:31:59.366Z,2.80
2017-12-10T15:34:04.101Z,3.30
2017-12-10T15:36:08.560Z,3.10
2017-12-10T15:38:12.454Z,2.70
2017-12-10T15:40:16.931Z,3.00
2017-12-10T15:42:20.624Z,2.90
2017-12-10T15:44:24.315Z,3.10
2017-12-10T15:46:28.100Z,3.20
2017-12-10T15:48:31.697Z,2.70
2017-12-10T15:50:35.328Z,3.40
2017-12-10T15:52:38.862Z,3.70
2017-12-10T15:57:01.539Z,3.57
2017-12-10T15:59:05.753Z,3.40
2017-12-10T16:01:10.615Z,5.70
2017-12-10T16:03:19.206Z,4.10
2017-12-10T16:05:26.027Z,3.30
2017-12-10T16:07:30.271Z,3.03
2017-12-10T16:09:33.792Z,2.13
2017-12-10T16:11:41.109Z,3.30
2017-12-10T16:13:45.937Z,2.50
2017-12-10T16:15:49.614Z,3.43
2017-12-10T16:17:53.297Z,3.23
2017-12-10T16:22:04.594Z,3.70
2017-12-10T16:24:08.246Z,4.00
2017-12-10T16:26:15.875Z,3.20
2017-12-10T16:30:29.914Z,3.17
2017-12-10T16:32:33.493Z,3.80
2017-12-10T16:34:37.173Z,3.33
2017-12-10T16:36:41.904Z,4.20
2017-12-10T16:38:45.802Z,3.83
2017-12-10T16:40:50.421Z,3.17
2017-12-10T16:45:03.423Z,3.40
2017-12-10T16:47:07.060Z,2.87
2017-12-10T16:49:11.236Z,2.90
2017-12-10T16:51:14.867Z,3.70
2017-12-10T16:53:20.259Z,4.20
2017-12-10T16:55:23.861Z,3.00
2017-12-10T16:57:27.503Z,3.20
2017-12-10T16:59:35.021Z,2.47
2017-12-10T17:01:40.267Z,2.00
2017-12-10T17:03:43.936Z,2.60
2017-12-10T17:05:47.657Z,3.40
2017-12-10T17:07:51.828Z,1.97
2017-12-10T17:09:56.533Z,2.10
2017-12-10T17:12:00.195Z,2.90
2017-12-10T17:14:03.777Z,2.97
2017-12-10T17:16:07.441Z,2.90
2017-12-10T17:18:11.755Z,3.53
2017-12-10T17:20:16.039Z,3.13
2017-12-10T17:22:19.650Z,3.60
2017-12-10T17:24:23.239Z,6.27
2017-12-10T17:26:26.782Z,5.63
2017-12-10T17:28:31.048Z,4.70
2017-12-10T17:30:35.849Z,3.60
2017-12-10T17:32:40.101Z,4.37
2017-12-10T17:34:43.624Z,3.37
2017-12-10T17:36:47.891Z,3.50
2017-12-10T17:38:51.422Z,3.10
2017-12-10T17:40:55.492Z,3.17
2017-12-10T17:42:59.041Z,3.00
2017-12-10T17:45:02.638Z,6.20
2017-12-10T17:47:06.150Z,5.03
2017-12-10T17:49:09.674Z,5.80
2017-12-10T17:51:13.231Z,3.17
2017-12-10T17:53:16.734Z,3.70
2017-12-10T17:55:20.269Z,3.13
2017-12-10T17:57:23.761Z,3.73
2017-12-10T17:59:27.248Z,3.17
2017-12-10T18:01:31.223Z,4.30
2017-12-10T18:03:34.867Z,4.83
2017-12-10T18:05:38.394Z,3.13
2017-12-10T18:07:42.796Z,3.60
2017-12-10T18:09:47.061Z,3.90
2017-12-10T18:11:52.223Z,3.10
2017-12-10T18:13:56.053Z,3.27
2017-12-10T18:16:00.352Z,4.90
2017-12-10T18:18:03.913Z,3.27
2017-12-10T18:20:07.398Z,2.93
2017-12-10T18:22:11.002Z,3.37
2017-12-10T18:24:14.494Z,3.10
2017-12-10T18:26:18.076Z,3.90
2017-12-10T18:28:22.395Z,3.40
2017-12-10T18:30:26.014Z,3.80
2017-12-10T18:32:29.611Z,3.53
2017-12-10T18:34:33.956Z,3.53
2017-12-10T18:36:38.718Z,3.50
2017-12-10T18:38:42.882Z,3.17
2017-12-10T18:40:48.026Z,3.97
2017-12-10T18:42:54.122Z,4.10
2017-12-10T18:44:59.305Z,3.37
2017-12-10T18:47:02.837Z,4.50
2017-12-10T18:49:06.927Z,4.03
2017-12-10T18:51:10.479Z,4.03
2017-12-10T18:53:14.772Z,3.60
2017-12-10T18:55:20.228Z,3.27
2017-12-10T18:57:23.714Z,3.73
2017-12-10T18:59:29.682Z,3.07
2017-12-10T19:01:34.514Z,3.17
2017-12-10T19:03:45.182Z,3.60
2017-12-10T19:05:50.732Z,2.90
2017-12-10T19:07:56.556Z,4.10
2017-12-10T19:10:02.478Z,4.10
2017-12-10T19:12:09.579Z,3.33
2017-12-10T19:14:14.040Z,3.30
2017-12-10T19:16:18.413Z,3.63
2017-12-10T19:18:22.827Z,4.27
2017-12-10T19:20:27.978Z,3.87
2017-12-10T19:22:33.524Z,3.93
2017-12-10T19:24:40.839Z,3.70
2017-12-10T19:26:47.616Z,4.40
2017-12-10T19:28:53.541Z,3.17
2017-12-10T19:30:58.807Z,3.50
2017-12-10T19:33:04.311Z,4.77
2017-12-10T19:35:09.715Z,2.87
2017-12-10T19:37:14.464Z,2.70
2017-12-10T19:39:19.034Z,2.60
2017-12-10T19:41:24.261Z,3.27
2017-12-10T19:43:29.181Z,3.60
2017-12-10T19:45:35.132Z,3.83
2017-12-10T19:47:40.904Z,3.17
2017-12-10T19:49:46.380Z,3.10
2017-12-10T19:51:51.791Z,4.60
2017-12-10T19:53:56.025Z,4.10
2017-12-10T19:56:00.938Z,3.30
2017-12-10T19:58:04.619Z,2.90
2017-12-10T20:00:08.317Z,3.70
2017-12-10T20:02:11.906Z,3.13
2017-12-10T20:04:15.720Z,2.97
2017-12-10T20:06:20.177Z,2.83
2017-12-10T20:08:23.687Z,2.93
2017-12-10T20:10:28.004Z,2.70
2017-12-10T20:12:32.495Z,2.97
2017-12-10T20:14:36.021Z,2.90
2017-12-10T20:16:40.516Z,2.67
2017-12-10T20:18:44.002Z,4.17
2017-12-10T20:20:48.218Z,2.50
2017-12-10T20:22:51.975Z,2.13
2017-12-10T20:24:56.225Z,3.10
2017-12-10T20:27:02.829Z,2.03
2017-12-10T20:29:06.830Z,2.80
2017-12-10T20:31:10.392Z,2.57
2017-12-10T20:33:14.034Z,2.90
2017-12-10T20:35:17.706Z,2.20
2017-12-10T20:37:21.262Z,2.40
2017-12-10T20:39:25.685Z,2.37
2017-12-10T20:41:29.304Z,2.60
2017-12-10T20:43:32.951Z,3.20
2017-12-10T20:45:37.275Z,2.70
2017-12-10T20:47:41.044Z,3.57
2017-12-10T20:49:45.831Z,2.67
2017-12-10T20:51:50.311Z,3.87
2017-12-10T20:53:55.426Z,4.80
2017-12-10T20:56:01.466Z,2.80
2017-12-10T20:58:05.958Z,4.10
2017-12-10T21:00:10.281Z,2.97
2017-12-10T21:02:14.419Z,3.10
2017-12-10T21:04:17.909Z,2.53
2017-12-10T21:06:22.256Z,2.73
2017-12-10T21:08:28.086Z,3.63
2017-12-10T21:10:31.637Z,2.67
2017-12-10T21:12:35.860Z,2.97
2017-12-10T21:14:40.600Z,2.50
2017-12-10T21:16:44.503Z,2.00
2017-12-10T21:18:48.007Z,2.43
2017-12-10T21:20:52.974Z,2.70
2017-12-10T21:23:03.205Z,2.90
2017-12-10T21:25:09.516Z,1.90
2017-12-10T21:27:13.947Z,2.40
2017-12-10T21:29:18.059Z,2.30
2017-12-10T21:31:23.081Z,2.80
2017-12-10T21:33:26.914Z,2.80
2017-12-10T21:35:30.535Z,2.50
2017-12-10T21:37:34.868Z,2.33
2017-12-10T21:39:38.379Z,2.10
2017-12-10T21:41:42.631Z,2.20
2017-12-10T21:43:46.126Z,2.73
2017-12-10T21:45:49.697Z,2.43
2017-12-10T21:47:53.957Z,2.07
2017-12-10T21:49:58.282Z,2.30
2017-12-10T21:52:01.906Z,3.60
2017-12-10T21:54:06.201Z,2.27
2017-12-10T21:56:10.545Z,2.07
2017-12-10T21:58:14.060Z,2.30
2017-12-10T22:00:17.555Z,2.87
2017-12-10T22:02:21.091Z,2.43
2017-12-10T22:04:24.575Z,2.13
2017-12-10T22:06:28.125Z,2.30
2017-12-10T22:08:31.635Z,2.10
2017-12-10T22:10:35.199Z,2.80
2017-12-10T22:12:38.701Z,2.13
2017-12-10T22:14:42.164Z,2.67
2017-12-10T22:16:45.692Z,2.20
2017-12-10T22:18:49.956Z,2.23
2017-12-10T22:20:54.341Z,2.20
2017-12-10T22:22:57.852Z,2.43
2017-12-10T22:25:01.326Z,2.40
2017-12-10T22:27:04.844Z,2.47
2017-12-10T22:29:08.428Z,2.43
2017-12-10T22:31:11.967Z,2.40
2017-12-10T22:33:15.488Z,2.40
2017-12-10T22:35:19.767Z,2.20
2017-12-10T22:37:23.258Z,2.53
2017-12-10T22:39:26.796Z,2.90
2017-12-10T22:41:31.023Z,2.67
2017-12-10T22:43:35.270Z,3.60
2017-12-10T22:45:38.732Z,2.13
2017-12-10T22:47:42.967Z,2.47
2017-12-10T22:49:46.428Z,2.33
2017-12-10T22:51:49.860Z,1.77
2017-12-10T22:53:53.355Z,2.00
2017-12-10T22:55:57.635Z,2.03
2017-12-10T22:58:01.118Z,1.50
2017-12-10T23:00:04.681Z,1.80
2017-12-10T23:02:08.962Z,1.60
2017-12-10T23:04:12.466Z,1.83
2017-12-10T23:06:15.920Z,2.00
2017-12-10T23:08:20.143Z,1.83
2017-12-10T23:10:24.437Z,1.70
2017-12-10T23:12:28.667Z,2.83
2017-12-10T23:14:40.955Z,2.33
2017-12-10T23:16:44.458Z,1.90
2017-12-10T23:18:48.652Z,1.63
2017-12-10T23:20:52.119Z,1.70
2017-12-10T23:22:55.846Z,1.50
2017-12-10T23:24:59.329Z,1.40
2017-12-10T23:27:02.821Z,1.83
2017-12-10T23:29:06.310Z,1.70
2017-12-10T23:31:10.653Z,1.60
2017-12-10T23:33:14.891Z,1.63
2017-12-10T23:35:18.539Z,2.10
2017-12-10T23:37:22.059Z,2.27
2017-12-10T23:39:26.275Z,1.67
2017-12-10T23:41:30.544Z,1.70
2017-12-10T23:43:34.064Z,2.00
2017-12-10T23:45:38.328Z,1.63
2017-12-10T23:47:41.831Z,1.87
2017-12-10T23:49:45.266Z,1.90
2017-12-10T23:51:49.503Z,1.87
2017-12-10T23:53:53.740Z,2.00
2017-12-10T23:55:58.153Z,1.80
2017-12-10T23:58:01.695Z,1.87
